Perkinsville, AK

5:56 PM AKST on February 22, 2017 (GMT -0900)
Dexter | | Change Station
Active Advisory: Winter Weather Advisory

Elev 45 ft 64.58 °N, 165.27 °W | Updated 35 seconds ago

Overcast
Overcast
-2.4 °F
Feels Like -12 °F
N
4.0
Wind Variable Wind from SE
Gusts 6.0 mph

Today
High -- | Low -- °F
--% Chance of Precip.
Yesterday
High -- | Low -- °F
Precip. -- in
Pressure 30.16 in
Visibility 10.0 miles
Clouds Overcast 6500 ft
Windchill -12 °F
Dew Point -18 °F
Humidity 46%
Rainfall 0.00 in
Snow Depth Not available.
9:32 AM 6:58 PM
Waning Crescent, 13% visible
METAR PAOM 230253Z 08011KT 10SM OVC065 M19/M25 A3015 RMK SLP211 T11891250 58030 VIA AUTODIAL
Pressure 30.16 in
Visibility 10.0 miles
Clouds Overcast 6500 ft
Windchill -12 °F
Dew Point -18 °F
Humidity 46%
Rainfall 0.00 in
Snow Depth Not available.
9:32 AM 6:58 PM
Waning Crescent, 13% visible
METAR PAOM 230253Z 08011KT 10SM OVC065 M19/M25 A3015 RMK SLP211 T11891250 58030 VIA AUTODIAL

Get Your Daily Forecast Email!

Thanks for signing up!

Be on the lookout for a verification email in your inbox.

You'll start receiving the daily forecast at 8 AM.

×

10-Day Weather Forecast

Almanac

Astronomy

Feb. 22, 2017 Rise Set
Actual Time
Civil Twilight
Nautical Twilight
Astronomical Twilight
Moon
Length of Visible Light
Length of Day
Tomorrow will be .
, % of the Moon is Illuminated

Today's Extremes

State Highs State Lows

Community

WunderPhotos

Upload Photos

1,962,540 photos uploaded!

WunderBlog® & News

Nearby

Air Quality

  Air Quality AQ Index Pollutant
Not available.

Snow Depth

Station Depth Elevation

Earthquake Activity

City Distance Mag. Time & Date
Minimum magnitude displayed is 2.5.

Coastal Water Temperatures

Place Temperature

Stations

Nearby Weather Stations

Station Location Temp. Windchill Dew Point Humidity Wind Precip. Elev Updated Type
                   

Watches & Warnings

Winter Weather Advisory
Issued: 2:30 PM AKST Feb. 22, 2017 – National Weather Service

... Winter Weather Advisory remains in effect until 3 PM akst
Thursday...

* snow... 4 to 7 inches.

* Blowing snow... reducing visibility to one half mile or less.

* Winds... east 20 to 30 mph gusting to 40 mph.

* Timing... conditions will deteriorate this evening as the winds
increase and moderate to heavy snow moves into the area.

* Impacts... visibility may be greatly reduced. Travel and outdoor
activities will be difficult.

Precautionary/preparedness actions...

A Winter Weather Advisory means that one or more winter weather
hazards are expected to cause travel difficulties.